createdAt,value
2022-11-13T00:01:16.184Z,97.58
2022-11-13T00:04:01.174Z,97.79
2022-11-13T00:06:46.116Z,98.06
2022-11-13T00:09:30.919Z,97.50
2022-11-13T00:12:15.895Z,97.56
2022-11-13T00:15:00.784Z,95.94
2022-11-13T00:17:45.696Z,94.99
2022-11-13T00:20:30.700Z,95.12
2022-11-13T00:23:15.602Z,95.45
2022-11-13T00:26:07.681Z,95.47
2022-11-13T00:28:57.044Z,95.30
2022-11-13T00:31:42.181Z,96.02
2022-11-13T00:34:46.527Z,95.82
2022-11-13T00:37:32.217Z,96.16
2022-11-13T00:40:17.125Z,97.07
2022-11-13T00:43:02.211Z,96.21
2022-11-13T00:45:46.993Z,95.98
2022-11-13T00:48:31.849Z,95.84
2022-11-13T00:51:16.780Z,95.60
2022-11-13T00:54:01.795Z,95.85
2022-11-13T00:56:46.626Z,95.78
2022-11-13T00:59:31.507Z,95.97
2022-11-13T01:02:16.548Z,95.68
2022-11-13T01:05:01.747Z,95.54
2022-11-13T01:07:46.576Z,95.34
2022-11-13T01:10:32.022Z,95.87
2022-11-13T01:13:17.203Z,95.97
2022-11-13T01:16:05.125Z,95.97
2022-11-13T01:18:50.423Z,95.75
2022-11-13T01:21:35.726Z,95.10
2022-11-13T01:24:20.541Z,95.06
2022-11-13T01:27:05.652Z,95.34
2022-11-13T01:29:50.568Z,96.34
2022-11-13T01:32:35.608Z,97.16
2022-11-13T01:35:20.523Z,96.74
2022-11-13T01:38:05.544Z,96.88
2022-11-13T01:40:50.854Z,97.56
2022-11-13T01:43:36.841Z,96.80
2022-11-13T01:46:29.718Z,97.22
2022-11-13T01:49:17.605Z,96.94
2022-11-13T01:52:04.486Z,97.17
2022-11-13T01:55:09.752Z,97.41
2022-11-13T01:57:54.872Z,96.65
2022-11-13T02:00:40.084Z,96.09
2022-11-13T02:03:25.029Z,95.33
2022-11-13T02:06:10.443Z,95.70
2022-11-13T02:08:56.024Z,97.00
2022-11-13T02:11:41.292Z,96.15
2022-11-13T02:14:28.138Z,96.36
2022-11-13T02:17:18.671Z,96.75
2022-11-13T02:20:05.896Z,97.15
2022-11-13T02:23:07.667Z,97.08
2022-11-13T02:25:53.408Z,97.10
2022-11-13T02:28:38.328Z,96.52
2022-11-13T02:31:23.538Z,97.00
2022-11-13T02:34:08.350Z,97.87
2022-11-13T02:36:53.250Z,98.22
2022-11-13T02:39:38.172Z,97.96
2022-11-13T02:42:23.080Z,97.92
2022-11-13T02:45:08.321Z,97.32
2022-11-13T02:47:53.542Z,97.02
2022-11-13T02:50:39.002Z,96.91
2022-11-13T02:53:23.857Z,98.09
2022-11-13T02:56:09.079Z,97.02
2022-11-13T02:58:54.186Z,98.17
2022-11-13T03:01:39.245Z,98.04
2022-11-13T03:04:24.173Z,98.18
2022-11-13T03:07:09.093Z,97.75
2022-11-13T03:09:53.900Z,98.36
2022-11-13T03:12:38.795Z,98.31
2022-11-13T03:15:24.047Z,97.54
2022-11-13T03:18:09.030Z,97.67
2022-11-13T03:20:54.378Z,98.33
2022-11-13T03:23:40.678Z,97.98
2022-11-13T03:26:28.244Z,98.54
2022-11-13T03:29:13.606Z,98.23
2022-11-13T03:31:58.397Z,97.53
2022-11-13T03:34:43.345Z,97.45
2022-11-13T03:37:28.285Z,97.72
2022-11-13T03:40:13.534Z,99.30
2022-11-13T03:42:58.807Z,99.36
2022-11-13T03:45:47.307Z,98.62
2022-11-13T03:48:32.345Z,99.08
2022-11-13T03:51:17.638Z,100.00
2022-11-13T03:54:02.469Z,100.00
2022-11-13T03:56:47.496Z,100.00
2022-11-13T03:59:32.357Z,100.00
2022-11-13T04:02:17.166Z,100.00
2022-11-13T04:05:02.199Z,100.00
2022-11-13T04:07:47.138Z,100.00
2022-11-13T04:10:32.142Z,100.00
2022-11-13T04:13:17.099Z,100.00
2022-11-13T04:16:01.971Z,100.00
2022-11-13T04:18:46.943Z,99.29
2022-11-13T04:21:31.986Z,99.47
2022-11-13T04:24:16.800Z,99.09
2022-11-13T04:27:01.460Z,98.98
2022-11-13T04:29:46.293Z,99.02
2022-11-13T04:32:31.764Z,99.96
2022-11-13T04:35:16.692Z,99.97
2022-11-13T04:38:01.613Z,99.88
2022-11-13T04:40:48.960Z,99.55
2022-11-13T04:43:33.685Z,99.61
2022-11-13T04:46:18.689Z,99.99
2022-11-13T04:49:03.600Z,99.08
2022-11-13T04:51:48.837Z,98.70
2022-11-13T04:54:33.862Z,98.37
2022-11-13T04:57:18.799Z,98.95
2022-11-13T05:00:04.588Z,98.65
2022-11-13T05:02:49.783Z,99.07
2022-11-13T05:05:34.936Z,98.90
2022-11-13T05:08:20.005Z,99.45
2022-11-13T05:11:05.199Z,99.60
2022-11-13T05:13:52.263Z,100.00
2022-11-13T05:16:37.244Z,100.00
2022-11-13T05:19:22.192Z,100.00
2022-11-13T05:22:07.842Z,99.43
2022-11-13T05:24:52.825Z,100.00
2022-11-13T05:27:37.783Z,100.00
2022-11-13T05:30:22.569Z,100.00
2022-11-13T05:33:07.589Z,100.00
2022-11-13T05:35:52.653Z,100.00
2022-11-13T05:38:37.538Z,100.00
2022-11-13T05:41:23.636Z,100.00
2022-11-13T05:44:08.803Z,100.00
2022-11-13T05:46:53.765Z,100.00
2022-11-13T05:49:38.601Z,100.00
2022-11-13T05:52:23.484Z,100.00
2022-11-13T05:55:08.357Z,100.00
2022-11-13T05:57:53.554Z,100.00
2022-11-13T06:00:38.660Z,100.00
2022-11-13T06:03:23.708Z,100.00
2022-11-13T06:06:09.791Z,100.00
2022-11-13T06:08:55.788Z,100.00
2022-11-13T06:11:40.760Z,100.00
2022-11-13T06:14:25.969Z,100.00
2022-11-13T06:17:10.930Z,100.00
2022-11-13T06:19:55.765Z,100.00
2022-11-13T06:22:40.701Z,100.00
2022-11-13T06:25:25.772Z,100.00
2022-11-13T06:28:10.585Z,100.00
2022-11-13T06:30:55.467Z,100.00
2022-11-13T06:33:40.856Z,100.00
2022-11-13T06:36:27.459Z,100.00
2022-11-13T06:39:12.370Z,100.00
2022-11-13T06:41:57.686Z,100.00
2022-11-13T06:44:42.696Z,100.00
2022-11-13T06:47:28.231Z,100.00
2022-11-13T06:50:12.983Z,100.00
2022-11-13T06:52:57.754Z,100.00
2022-11-13T06:55:46.296Z,100.00
2022-11-13T06:58:32.082Z,100.00
2022-11-13T07:01:18.916Z,100.00
2022-11-13T07:04:04.583Z,99.43
2022-11-13T07:06:49.452Z,99.55
2022-11-13T07:09:34.470Z,100.00
2022-11-13T07:12:19.446Z,100.00
2022-11-13T07:15:04.632Z,100.00
2022-11-13T07:17:49.535Z,100.00
2022-11-13T07:20:35.228Z,99.87
2022-11-13T07:23:20.309Z,99.88
2022-11-13T07:26:05.446Z,99.72
2022-11-13T07:28:50.659Z,100.00
2022-11-13T07:31:35.741Z,100.00
2022-11-13T07:34:20.527Z,100.00
2022-11-13T07:37:08.232Z,99.97
2022-11-13T07:39:53.141Z,99.98
2022-11-13T07:42:38.636Z,99.16
2022-11-13T07:45:23.895Z,99.57
2022-11-13T07:48:09.637Z,99.04
2022-11-13T07:50:55.311Z,97.65
2022-11-13T07:53:40.203Z,96.52
2022-11-13T07:56:25.463Z,97.21
2022-11-13T07:59:10.795Z,98.12
2022-11-13T08:01:55.601Z,96.68
2022-11-13T08:04:40.567Z,95.17
2022-11-13T08:07:25.473Z,92.31
2022-11-13T08:10:10.560Z,91.40
2022-11-13T08:13:00.280Z,91.70
2022-11-13T08:15:45.149Z,91.92
2022-11-13T08:18:31.228Z,91.64
2022-11-13T08:21:16.321Z,89.54
2022-11-13T08:24:01.617Z,89.64
2022-11-13T08:26:46.515Z,87.46
2022-11-13T08:29:31.549Z,86.41
2022-11-13T08:32:17.483Z,87.32
2022-11-13T08:35:02.341Z,86.67
2022-11-13T08:37:47.351Z,86.38
2022-11-13T08:40:32.495Z,84.79
2022-11-13T08:43:17.660Z,83.23
2022-11-13T08:46:02.978Z,83.44
2022-11-13T08:48:47.882Z,79.90
2022-11-13T08:51:32.961Z,81.65
2022-11-13T08:54:18.024Z,82.05
2022-11-13T08:57:05.934Z,83.32
2022-11-13T08:59:51.324Z,82.83
2022-11-13T09:02:36.124Z,79.74
2022-11-13T09:05:21.102Z,73.52
2022-11-13T09:08:06.490Z,71.15
2022-11-13T09:10:51.630Z,68.41
2022-11-13T09:13:41.160Z,69.62
2022-11-13T09:16:28.920Z,67.92
2022-11-13T09:19:13.672Z,72.02
2022-11-13T09:21:58.631Z,70.24
2022-11-13T09:24:43.463Z,70.25
2022-11-13T09:27:28.506Z,66.74
2022-11-13T09:30:13.387Z,69.11
2022-11-13T09:32:59.594Z,65.49
2022-11-13T09:35:44.809Z,66.54
2022-11-13T09:38:32.000Z,64.65
2022-11-13T09:41:21.807Z,67.11
2022-11-13T09:44:13.473Z,62.72
2022-11-13T09:47:12.912Z,62.11
2022-11-13T09:50:01.119Z,64.33
2022-11-13T09:52:46.575Z,61.47
2022-11-13T09:55:38.473Z,58.47
2022-11-13T09:58:33.620Z,56.65
2022-11-13T10:01:29.258Z,55.37
2022-11-13T10:04:17.530Z,56.18
2022-11-13T10:07:15.713Z,56.57
2022-11-13T10:10:19.599Z,59.80
2022-11-13T10:13:06.149Z,54.62
2022-11-13T10:15:52.851Z,54.26
2022-11-13T10:18:38.539Z,54.98
2022-11-13T10:21:26.569Z,55.86
2022-11-13T10:24:31.956Z,52.36
2022-11-13T10:27:17.069Z,52.67
2022-11-13T10:30:02.292Z,53.53
2022-11-13T10:32:47.825Z,55.67
2022-11-13T10:35:39.642Z,58.30
2022-11-13T10:38:44.760Z,56.15
2022-11-13T10:41:30.052Z,56.16
2022-11-13T10:44:20.970Z,57.13
2022-11-13T10:47:19.835Z,58.06
2022-11-13T10:50:24.096Z,57.75
2022-11-13T10:53:16.422Z,58.65
2022-11-13T10:56:01.635Z,59.62
2022-11-13T10:58:59.040Z,61.70
2022-11-13T11:01:45.721Z,60.93
2022-11-13T11:04:30.710Z,62.25
2022-11-13T11:07:21.520Z,62.70
2022-11-13T11:10:19.052Z,61.52
2022-11-13T11:13:21.320Z,61.45
2022-11-13T11:16:08.697Z,61.47
2022-11-13T11:18:55.995Z,60.36
2022-11-13T11:21:42.732Z,60.07
2022-11-13T11:24:35.216Z,59.64
2022-11-13T11:27:40.800Z,57.44
2022-11-13T11:30:26.866Z,59.23
2022-11-13T11:33:30.673Z,58.42
2022-11-13T11:36:25.716Z,59.26
2022-11-13T11:39:25.463Z,59.03
2022-11-13T11:42:10.754Z,58.02
2022-11-13T11:45:14.597Z,59.40
2022-11-13T11:48:00.723Z,59.37
2022-11-13T11:50:55.209Z,58.79
2022-11-13T11:53:52.205Z,58.10
2022-11-13T11:56:57.327Z,57.47
2022-11-13T11:59:45.536Z,56.82
2022-11-13T12:02:45.949Z,58.16
2022-11-13T12:05:45.044Z,60.52
2022-11-13T12:08:33.443Z,60.85
2022-11-13T12:11:29.533Z,57.24
2022-11-13T12:14:26.871Z,60.95
2022-11-13T12:17:16.687Z,59.60
2022-11-13T12:20:09.909Z,58.37
2022-11-13T12:23:13.573Z,58.71
2022-11-13T12:26:10.531Z,60.42
2022-11-13T12:29:02.704Z,58.00
2022-11-13T12:31:57.026Z,57.35
2022-11-13T12:34:45.038Z,58.17
2022-11-13T12:37:49.180Z,57.80
2022-11-13T12:40:42.921Z,56.30
2022-11-13T12:43:37.604Z,54.83
2022-11-13T12:46:32.502Z,51.68
2022-11-13T12:49:23.420Z,51.94
2022-11-13T12:52:25.543Z,52.71
2022-11-13T12:55:25.540Z,54.03
2022-11-13T12:58:22.090Z,54.20
2022-11-13T13:01:15.384Z,56.56
2022-11-13T13:04:30.207Z,56.84
2022-11-13T13:07:15.492Z,57.08
2022-11-13T13:10:03.685Z,57.42
2022-11-13T13:12:51.664Z,58.11
2022-11-13T13:15:38.532Z,57.27
2022-11-13T13:18:23.385Z,57.92
2022-11-13T13:21:12.990Z,59.90
2022-11-13T13:24:06.414Z,60.72
2022-11-13T13:26:51.559Z,60.65
2022-11-13T13:29:40.460Z,60.49
2022-11-13T13:32:35.029Z,61.05
2022-11-13T13:35:23.870Z,61.71
2022-11-13T13:38:19.921Z,60.95
2022-11-13T13:41:16.945Z,59.85
2022-11-13T13:44:17.896Z,60.16
2022-11-13T13:47:06.234Z,60.15
2022-11-13T13:49:52.020Z,59.78
2022-11-13T13:52:37.285Z,61.64
2022-11-13T13:55:31.617Z,61.54
2022-11-13T13:58:22.818Z,62.08
2022-11-13T14:01:19.039Z,62.37
2022-11-13T14:04:34.441Z,62.40
2022-11-13T14:07:19.860Z,63.78
2022-11-13T14:10:06.962Z,64.96
2022-11-13T14:12:52.284Z,64.24
2022-11-13T14:15:37.677Z,64.57
2022-11-13T14:18:23.079Z,63.49
2022-11-13T14:21:17.262Z,64.75
2022-11-13T14:24:03.584Z,65.29
2022-11-13T14:26:49.847Z,65.61
2022-11-13T14:29:40.415Z,66.16
2022-11-13T14:32:28.460Z,67.83
2022-11-13T14:35:21.296Z,68.80
2022-11-13T14:38:11.113Z,70.10
2022-11-13T14:40:56.372Z,72.78
2022-11-13T14:43:48.542Z,73.62
2022-11-13T14:46:35.154Z,76.55
2022-11-13T14:49:27.728Z,78.32
2022-11-13T14:52:23.627Z,78.09
2022-11-13T14:55:20.446Z,78.61
2022-11-13T14:58:05.842Z,80.87
2022-11-13T15:00:51.025Z,81.56
2022-11-13T15:03:35.885Z,80.75
2022-11-13T15:06:25.264Z,80.94
2022-11-13T15:09:15.342Z,81.91
2022-11-13T15:12:00.478Z,83.02
2022-11-13T15:14:45.367Z,82.48
2022-11-13T15:17:30.600Z,82.83
2022-11-13T15:20:17.220Z,82.02
2022-11-13T15:23:02.067Z,83.24
2022-11-13T15:25:47.019Z,84.32
2022-11-13T15:28:31.794Z,85.11
2022-11-13T15:31:22.187Z,85.75
2022-11-13T15:34:09.185Z,84.00
2022-11-13T15:36:54.144Z,85.56
2022-11-13T15:39:39.504Z,86.75
2022-11-13T15:42:28.277Z,86.74
2022-11-13T15:45:14.617Z,87.65
2022-11-13T15:47:59.864Z,89.42
2022-11-13T15:50:46.667Z,88.99
2022-11-13T15:53:31.864Z,88.44
2022-11-13T15:56:17.956Z,87.14
2022-11-13T15:59:03.110Z,88.33
2022-11-13T16:01:50.858Z,88.41
2022-11-13T16:04:55.481Z,88.55
2022-11-13T16:07:42.528Z,89.82
2022-11-13T16:10:27.651Z,90.33
2022-11-13T16:13:13.605Z,90.12
2022-11-13T16:15:59.239Z,90.76
2022-11-13T16:18:44.235Z,91.43
2022-11-13T16:21:29.150Z,91.67
2022-11-13T16:24:14.048Z,91.42
2022-11-13T16:26:59.722Z,91.26
2022-11-13T16:29:44.900Z,90.46
2022-11-13T16:32:29.907Z,91.00
2022-11-13T16:35:15.625Z,90.83
2022-11-13T16:38:00.737Z,91.10
2022-11-13T16:40:45.857Z,91.12
2022-11-13T16:43:31.225Z,91.25
2022-11-13T16:46:21.315Z,90.59
2022-11-13T16:49:11.531Z,90.91
2022-11-13T16:51:56.435Z,91.22
2022-11-13T16:54:41.242Z,91.02
2022-11-13T16:57:27.567Z,90.72
2022-11-13T17:00:14.121Z,90.98
2022-11-13T17:02:59.404Z,91.67
2022-11-13T17:05:44.782Z,92.13
2022-11-13T17:08:29.626Z,91.98
2022-11-13T17:11:15.003Z,92.01
2022-11-13T17:14:00.571Z,92.84
2022-11-13T17:16:45.753Z,91.54
2022-11-13T17:19:30.693Z,91.53
2022-11-13T17:22:16.980Z,91.25
2022-11-13T17:25:01.982Z,91.80
2022-11-13T17:27:46.797Z,91.87
2022-11-13T17:30:31.583Z,93.19
2022-11-13T17:33:17.064Z,94.42
2022-11-13T17:36:03.612Z,94.30
2022-11-13T17:38:48.573Z,93.53
2022-11-13T17:41:34.134Z,92.70
2022-11-13T17:44:18.956Z,93.94
2022-11-13T17:47:03.916Z,94.34
2022-11-13T17:49:49.151Z,93.34
2022-11-13T17:52:34.024Z,94.46
2022-11-13T17:55:19.407Z,95.14
2022-11-13T17:58:04.817Z,94.80
2022-11-13T18:00:50.426Z,94.62
2022-11-13T18:03:35.953Z,94.96
2022-11-13T18:06:21.250Z,94.55
2022-11-13T18:09:06.463Z,94.89
2022-11-13T18:11:51.465Z,95.01
2022-11-13T18:14:36.398Z,96.09
2022-11-13T18:17:22.219Z,95.21
2022-11-13T18:20:07.314Z,95.38
2022-11-13T18:22:52.595Z,94.64
2022-11-13T18:25:39.647Z,94.92
2022-11-13T18:28:25.113Z,94.73
2022-11-13T18:31:11.966Z,94.97
2022-11-13T18:34:01.842Z,93.35
2022-11-13T18:36:46.982Z,91.80
2022-11-13T18:39:32.034Z,92.57
2022-11-13T18:42:16.922Z,92.16
2022-11-13T18:45:06.019Z,93.51
2022-11-13T18:47:51.453Z,94.60
2022-11-13T18:50:36.299Z,95.10
2022-11-13T18:53:21.201Z,95.63
2022-11-13T18:56:07.830Z,95.60
2022-11-13T18:58:53.888Z,96.03
2022-11-13T19:01:40.132Z,95.60
2022-11-13T19:04:25.341Z,95.83
2022-11-13T19:07:12.119Z,95.60
2022-11-13T19:09:57.553Z,95.04
2022-11-13T19:12:42.556Z,95.19
2022-11-13T19:15:28.234Z,95.17
2022-11-13T19:18:13.156Z,94.99
2022-11-13T19:20:58.256Z,94.62
2022-11-13T19:23:43.581Z,94.62
2022-11-13T19:26:29.067Z,94.44
2022-11-13T19:29:14.471Z,93.24
2022-11-13T19:31:59.671Z,93.68
2022-11-13T19:34:46.573Z,94.03
2022-11-13T19:37:31.879Z,93.58
2022-11-13T19:40:17.275Z,94.17
2022-11-13T19:43:02.240Z,93.26
2022-11-13T19:45:46.972Z,93.23
2022-11-13T19:48:32.221Z,92.53
2022-11-13T19:51:19.045Z,92.74
2022-11-13T19:54:04.098Z,93.09
2022-11-13T19:56:49.061Z,92.58
2022-11-13T19:59:35.271Z,92.97
2022-11-13T20:02:20.537Z,92.53
2022-11-13T20:05:05.761Z,93.25
2022-11-13T20:07:50.862Z,94.32
2022-11-13T20:10:35.506Z,93.82
2022-11-13T20:13:20.656Z,94.77
2022-11-13T20:16:06.664Z,94.64
2022-11-13T20:18:52.275Z,94.63
2022-11-13T20:21:37.563Z,94.06
2022-11-13T20:24:22.560Z,93.38
2022-11-13T20:27:07.705Z,92.57
2022-11-13T20:29:52.785Z,91.34
2022-11-13T20:32:38.432Z,93.00
2022-11-13T20:35:23.616Z,92.06
2022-11-13T20:38:08.576Z,92.04
2022-11-13T20:40:54.040Z,92.08
2022-11-13T20:43:38.991Z,92.60
2022-11-13T20:46:24.178Z,92.48
2022-11-13T20:49:09.012Z,93.62
2022-11-13T20:51:57.180Z,94.67
2022-11-13T20:54:42.362Z,95.40
2022-11-13T20:57:27.224Z,95.88
2022-11-13T21:00:12.472Z,96.86
2022-11-13T21:02:57.664Z,96.75
2022-11-13T21:05:45.105Z,97.10
2022-11-13T21:08:30.977Z,97.18
2022-11-13T21:11:19.144Z,97.06
2022-11-13T21:14:04.089Z,96.05
2022-11-13T21:16:49.491Z,95.49
2022-11-13T21:19:34.280Z,95.14
2022-11-13T21:22:19.246Z,96.18
2022-11-13T21:25:04.286Z,95.50
2022-11-13T21:27:49.316Z,95.31
2022-11-13T21:30:34.559Z,95.71
2022-11-13T21:33:19.631Z,95.96
2022-11-13T21:36:05.613Z,96.28
2022-11-13T21:38:52.549Z,96.59
2022-11-13T21:41:37.956Z,96.43
2022-11-13T21:44:23.191Z,96.19
2022-11-13T21:47:10.762Z,96.37
2022-11-13T21:49:55.950Z,95.98
2022-11-13T21:52:40.805Z,95.69
2022-11-13T21:55:25.601Z,95.08
2022-11-13T21:58:10.392Z,95.53
2022-11-13T22:00:55.281Z,95.10
2022-11-13T22:03:40.234Z,95.70
2022-11-13T22:06:26.356Z,95.59
2022-11-13T22:09:38.223Z,96.04
2022-11-13T22:12:23.074Z,95.67
2022-11-13T22:15:09.662Z,95.98
2022-11-13T22:17:54.685Z,96.56
2022-11-13T22:20:39.522Z,97.36
2022-11-13T22:23:24.584Z,97.49
2022-11-13T22:26:10.979Z,97.09
2022-11-13T22:28:56.416Z,96.17
2022-11-13T22:31:41.754Z,96.17
2022-11-13T22:34:27.002Z,94.92
2022-11-13T22:37:11.788Z,95.38
2022-11-13T22:39:56.760Z,94.69
2022-11-13T22:42:41.482Z,95.84
2022-11-13T22:45:26.436Z,95.84
2022-11-13T22:48:11.627Z,95.94
2022-11-13T22:51:01.555Z,96.29
2022-11-13T22:53:51.309Z,96.04
2022-11-13T22:56:36.849Z,96.37
2022-11-13T22:59:22.113Z,97.03
2022-11-13T23:02:06.957Z,97.29
2022-11-13T23:04:52.214Z,98.20
2022-11-13T23:07:36.979Z,97.91
2022-11-13T23:10:25.360Z,98.00
2022-11-13T23:13:10.147Z,97.58
2022-11-13T23:15:55.003Z,97.26
2022-11-13T23:18:40.423Z,97.30
2022-11-13T23:21:25.713Z,97.82
2022-11-13T23:24:11.373Z,97.22
2022-11-13T23:26:57.193Z,96.94
2022-11-13T23:29:47.263Z,96.11
2022-11-13T23:32:34.668Z,95.39
2022-11-13T23:35:19.613Z,95.52
2022-11-13T23:38:04.480Z,95.84
2022-11-13T23:40:54.205Z,96.61
2022-11-13T23:44:08.137Z,96.69
2022-11-13T23:46:44.654Z,96.21
2022-11-13T23:49:29.657Z,96.38
2022-11-13T23:52:14.556Z,96.59
2022-11-13T23:54:59.592Z,97.63
2022-11-13T23:57:44.836Z,97.84
